Time;durP1;ratioP1;P1;durP2;ratioP2;P2;SDS_P1;SDS_P2;PMS_P1;PMS_P2;Temp;Humidity;BMP_temperature;BMP_pressure;BME280_temperature;BME280_humidity;BME280_pressure;Samples;Min_cycle;Max_cycle;Signal;HPM_P1;HPM_P2
2022/05/25 00:00:25;;;;;;;0.40;0.40;;;10.80;99.90;;;;;;5094814;28;20040;-71
2022/05/25 00:02:52;;;;;;;0.40;0.40;;;10.80;99.90;;;;;;5094773;28;20048;-75
2022/05/25 00:05:19;;;;;;;0.40;0.40;;;10.70;99.90;;;;;;5094679;28;20040;-74
2022/05/25 00:07:45;;;;;;;0.40;0.40;;;10.70;99.90;;;;;;5094728;28;20056;-74
2022/05/25 00:10:11;;;;;;;0.43;0.43;;;10.70;99.90;;;;;;5094325;28;20052;-77
2022/05/25 00:12:38;;;;;;;0.47;0.47;;;10.70;99.90;;;;;;5094491;28;20408;-77
2022/05/25 00:15:04;;;;;;;;;;;10.60;99.90;;;;;;5094874;28;20101;-72
2022/05/25 00:17:30;;;;;;;0.40;0.40;;;10.60;99.90;;;;;;5094099;28;19942;-72
2022/05/25 00:19:59;;;;;;;0.40;0.40;;;10.60;99.90;;;;;;5094503;28;20476;-71
2022/05/25 00:22:25;;;;;;;0.40;0.40;;;10.50;99.90;;;;;;5094375;28;20040;-74
2022/05/25 00:24:51;;;;;;;0.40;0.40;;;10.50;99.90;;;;;;5094283;28;20392;-74
2022/05/25 00:27:17;;;;;;;0.50;0.50;;;10.50;99.90;;;;;;5094293;28;20047;-73
2022/05/25 00:29:43;;;;;;;0.40;0.40;;;10.50;99.90;;;;;;5094311;28;20055;-71
2022/05/25 00:32:09;;;;;;;0.55;0.55;;;10.50;99.90;;;;;;5093956;28;20048;-74
2022/05/25 00:34:34;;;;;;;0.43;0.43;;;10.50;99.90;;;;;;5094599;28;20076;-70
2022/05/25 00:37:00;;;;;;;0.40;0.40;;;10.40;99.90;;;;;;5094170;28;20491;-73
2022/05/25 00:39:26;;;;;;;0.45;0.45;;;10.40;99.90;;;;;;5093971;28;20127;-75
2022/05/25 00:41:52;;;;;;;0.50;0.50;;;10.40;99.90;;;;;;5094059;28;20036;-76
2022/05/25 00:44:18;;;;;;;0.40;0.40;;;10.40;99.90;;;;;;5093945;28;20351;-73
2022/05/25 00:46:44;;;;;;;0.40;0.40;;;10.30;99.90;;;;;;5094107;28;20086;-76
2022/05/25 00:49:23;;;;;;;0.43;0.43;;;10.30;99.90;;;;;;5094347;28;20048;-71
2022/05/25 00:52:07;;;;;;;0.43;0.43;;;10.30;99.90;;;;;;5094055;28;20127;-75
2022/05/25 00:54:37;;;;;;;0.40;0.40;;;10.20;99.90;;;;;;5093600;28;20109;-74
2022/05/25 00:57:08;;;;;;;0.40;0.40;;;10.30;99.90;;;;;;5094100;28;20043;-70
2022/05/25 00:59:46;;;;;;;0.73;0.73;;;10.20;99.90;;;;;;5094160;28;20043;-74
2022/05/25 01:02:11;;;;;;;;;;;10.20;99.90;;;;;;5094565;28;20056;-73
2022/05/25 01:04:37;;;;;;;0.40;0.40;;;10.20;99.90;;;;;;5093799;28;20363;-74
2022/05/25 01:07:07;;;;;;;0.47;0.47;;;10.20;99.90;;;;;;5093752;28;20047;-71
2022/05/25 01:09:40;;;;;;;0.40;0.40;;;10.10;99.90;;;;;;5094300;28;20091;-70
2022/05/25 01:12:43;;;;;;;0.40;0.40;;;10.10;99.90;;;;;;5093902;28;20048;-77
2022/05/25 01:15:21;;;;;;;0.50;0.50;;;10.10;99.90;;;;;;5093729;28;20044;-75
2022/05/25 01:18:24;;;;;;;0.40;0.40;;;10.00;99.90;;;;;;5094178;28;20497;-74
2022/05/25 01:20:54;;;;;;;0.40;0.40;;;10.00;99.90;;;;;;5093896;28;20036;-74
2022/05/25 01:23:19;;;;;;;0.40;0.40;;;9.90;99.90;;;;;;5093782;28;20048;-73
2022/05/25 01:26:06;;;;;;;0.40;0.40;;;10.00;99.90;;;;;;5093579;28;20051;-74
2022/05/25 01:28:58;;;;;;;0.40;0.40;;;9.90;99.90;;;;;;5095547;28;20127;-72
2022/05/25 01:31:35;;;;;;;0.47;0.47;;;9.90;99.90;;;;;;5097955;28;20455;-73
2022/05/25 01:34:23;;;;;;;0.40;0.40;;;9.90;99.90;;;;;;5097778;28;20082;-70
2022/05/25 01:37:02;;;;;;;0.40;0.40;;;9.90;99.90;;;;;;5087103;28;20056;-76
2022/05/25 01:39:32;;;;;;;0.40;0.40;;;9.80;99.90;;;;;;5097617;28;20048;-76
2022/05/25 01:42:18;;;;;;;0.50;0.50;;;9.80;99.90;;;;;;5097683;28;20101;-74
2022/05/25 01:44:48;;;;;;;0.40;0.40;;;9.80;99.90;;;;;;5097698;28;20044;-75
2022/05/25 01:47:14;;;;;;;0.40;0.40;;;9.80;99.90;;;;;;5097865;28;20079;-74
2022/05/25 01:49:50;;;;;;;0.50;0.50;;;9.80;99.90;;;;;;5097315;28;20090;-71
2022/05/25 01:52:23;;;;;;;0.47;0.47;;;9.70;99.90;;;;;;5097212;28;20471;-75
2022/05/25 01:54:56;;;;;;;0.40;0.40;;;9.70;99.90;;;;;;5097271;28;20043;-72
2022/05/25 01:57:26;;;;;;;0.43;0.43;;;9.70;99.90;;;;;;5097169;28;20479;-73
2022/05/25 01:59:52;;;;;;;0.40;0.40;;;9.70;99.90;;;;;;5097924;28;20075;-73
2022/05/25 02:05:08;;;;;;;0.40;0.40;;;9.70;99.90;;;;;;5096990;28;20047;-73
2022/05/25 02:07:51;;;;;;;0.82;0.82;;;9.70;99.90;;;;;;5097151;28;20388;-72
2022/05/25 02:10:46;;;;;;;0.60;0.60;;;9.60;99.90;;;;;;5096877;28;20056;-74
2022/05/25 02:13:31;;;;;;;0.40;0.40;;;9.60;99.90;;;;;;5096915;28;20139;-74
2022/05/25 02:16:29;;;;;;;0.50;0.50;;;9.60;99.90;;;;;;5096913;28;20058;-74
2022/05/25 02:19:13;;;;;;;0.50;0.50;;;9.60;99.90;;;;;;5096859;28;20036;-75
2022/05/25 02:21:50;;;;;;;0.50;0.50;;;9.50;99.90;;;;;;5096835;28;20536;-74
2022/05/25 02:24:36;;;;;;;0.40;0.40;;;9.50;99.90;;;;;;5096706;28;20086;-73
2022/05/25 02:27:05;;;;;;;0.80;0.80;;;9.50;99.90;;;;;;5096620;28;20480;-74
2022/05/25 02:29:35;;;;;;;0.50;0.50;;;9.50;99.90;;;;;;5096873;28;20036;-75
2022/05/25 02:32:34;;;;;;;0.40;0.40;;;9.40;99.90;;;;;;5096570;28;20472;-72
2022/05/25 02:35:00;;;;;;;0.50;0.50;;;9.40;99.90;;;;;;5026187;28;20135;-76
2022/05/25 02:37:29;;;;;;;0.50;0.50;;;9.40;99.90;;;;;;5096954;28;20059;-77
2022/05/25 02:39:55;;;;;;;0.40;0.40;;;9.40;99.90;;;;;;5095907;28;20039;-74
2022/05/25 02:42:21;;;;;;;0.40;0.40;;;9.30;99.90;;;;;;5096064;28;20499;-73
2022/05/25 02:44:47;;;;;;;0.47;0.47;;;9.30;99.90;;;;;;5096322;28;20044;-75
2022/05/25 02:47:13;;;;;;;0.77;0.77;;;9.30;99.90;;;;;;5096338;28;20060;-76
2022/05/25 02:49:39;;;;;;;0.50;0.50;;;9.30;99.90;;;;;;5096173;28;20398;-74
2022/05/25 02:52:08;;;;;;;0.60;0.60;;;9.30;99.90;;;;;;5096220;28;20403;-71
2022/05/25 02:54:34;;;;;;;1.23;1.15;;;9.30;99.90;;;;;;5096113;28;20048;-73
2022/05/25 02:56:59;;;;;;;0.50;0.50;;;9.30;99.90;;;;;;5096120;28;20044;-72
2022/05/25 02:59:25;;;;;;;0.40;0.40;;;9.20;99.90;;;;;;5095200;28;20131;-72
2022/05/25 03:01:51;;;;;;;1.35;1.25;;;9.40;99.90;;;;;;5096068;28;20083;-70
2022/05/25 03:04:17;;;;;;;0.70;0.70;;;9.20;99.90;;;;;;5095793;28;20036;-73
2022/05/25 03:06:43;;;;;;;0.50;0.50;;;9.20;99.90;;;;;;5095348;28;20048;-73
2022/05/25 03:09:08;;;;;;;0.50;0.50;;;9.20;99.90;;;;;;5095610;28;20051;-76
2022/05/25 03:11:34;;;;;;;0.57;0.57;;;9.20;99.90;;;;;;5096133;28;20039;-73
2022/05/25 03:14:00;;;;;;;0.55;0.50;;;9.20;99.90;;;;;;5095591;28;20036;-73
2022/05/25 03:16:26;;;;;;;0.50;0.50;;;9.10;99.90;;;;;;5095693;28;20047;-73
2022/05/25 03:18:52;;;;;;;0.50;0.50;;;9.10;99.90;;;;;;5095589;28;20408;-71
2022/05/25 03:21:18;;;;;;;0.50;0.50;;;9.10;99.90;;;;;;5095304;28;20044;-72
2022/05/25 03:23:44;;;;;;;0.50;0.50;;;9.10;99.90;;;;;;5095502;28;20044;-72
2022/05/25 03:26:10;;;;;;;0.50;0.50;;;9.10;99.90;;;;;;5095498;28;20047;-76
2022/05/25 03:28:36;;;;;;;0.50;0.50;;;9.10;99.90;;;;;;5095396;28;20048;-73
2022/05/25 03:31:02;;;;;;;0.50;0.50;;;9.10;99.90;;;;;;5095506;28;20090;-72
2022/05/25 03:33:28;;;;;;;0.50;0.50;;;9.10;99.90;;;;;;5095338;28;20127;-76
2022/05/25 03:35:54;;;;;;;0.40;0.40;;;9.10;99.90;;;;;;5096068;28;20143;-73
2022/05/25 03:38:19;;;;;;;0.50;0.50;;;9.10;99.90;;;;;;5095613;28;20050;-74
2022/05/25 03:40:45;;;;;;;0.40;0.40;;;9.10;99.90;;;;;;5095156;28;20043;-72
2022/05/25 03:43:12;;;;;;;0.50;0.50;;;9.10;99.90;;;;;;5095205;28;20127;-71
2022/05/25 03:45:38;;;;;;;0.50;0.50;;;9.10;99.90;;;;;;5095048;28;20043;-73
2022/05/25 03:48:07;;;;;;;0.40;0.40;;;9.10;99.90;;;;;;5095113;28;20123;-75
2022/05/25 03:50:34;;;;;;;0.60;0.60;;;9.20;99.90;;;;;;5094216;28;20087;-75
2022/05/25 03:53:00;;;;;;;0.47;0.47;;;9.10;99.90;;;;;;5094959;28;20472;-74
2022/05/25 03:55:25;;;;;;;0.50;0.50;;;9.10;99.90;;;;;;5094894;28;20092;-77
2022/05/25 03:57:51;;;;;;;0.50;0.50;;;9.20;99.90;;;;;;5094872;28;20181;-71
2022/05/25 04:00:17;;;;;;;0.50;0.50;;;9.20;99.90;;;;;;5094851;28;20048;-74
2022/05/25 04:02:45;;;;;;;0.50;0.50;;;9.20;99.90;;;;;;5094670;28;20052;-73
2022/05/25 04:05:11;;;;;;;0.50;0.50;;;9.20;99.90;;;;;;5095047;28;20089;-73
2022/05/25 04:07:42;;;;;;;0.50;0.50;;;9.20;99.90;;;;;;5094675;28;20049;-73
2022/05/25 04:10:12;;;;;;;0.50;0.50;;;9.20;99.90;;;;;;5094455;28;20541;-73
2022/05/25 04:12:40;;;;;;;0.50;0.50;;;9.30;99.90;;;;;;5094743;28;20054;-73
2022/05/25 04:15:08;;;;;;;0.40;0.40;;;9.30;99.90;;;;;;5094704;28;20126;-74
2022/05/25 04:17:34;;;;;;;0.50;0.50;;;9.30;99.90;;;;;;5094540;28;20435;-71
2022/05/25 04:20:01;;;;;;;0.50;0.50;;;9.30;99.90;;;;;;5094448;28;20058;-73
2022/05/25 04:22:27;;;;;;;0.52;0.52;;;9.30;99.90;;;;;;5094475;28;20425;-74
2022/05/25 04:24:52;;;;;;;0.70;0.70;;;9.40;99.90;;;;;;5094276;28;20047;-72
2022/05/25 04:27:18;;;;;;;0.50;0.50;;;9.40;99.90;;;;;;5094391;28;20097;-72
2022/05/25 04:29:44;;;;;;;0.57;0.57;;;9.40;99.90;;;;;;5094328;28;20044;-76
2022/05/25 04:32:10;;;;;;;0.50;0.50;;;9.50;99.90;;;;;;5093979;28;20048;-73
2022/05/25 04:34:36;;;;;;;0.40;0.40;;;9.50;99.90;;;;;;5094849;28;20043;-73
2022/05/25 04:39:46;;;;;;;0.50;0.50;;;9.60;99.90;;;;;;5094371;28;20119;-73
2022/05/25 04:42:12;;;;;;;0.88;0.88;;;9.60;99.90;;;;;;5093181;28;20052;-72
2022/05/25 04:44:38;;;;;;;0.52;0.52;;;9.70;99.90;;;;;;5093974;28;20040;-75
2022/05/25 04:47:07;;;;;;;0.60;0.60;;;9.70;99.90;;;;;;5094076;28;20067;-72
2022/05/25 04:49:33;;;;;;;0.47;0.47;;;9.80;99.90;;;;;;5093996;28;20091;-74
2022/05/25 04:51:59;;;;;;;0.50;0.50;;;9.80;99.90;;;;;;5094310;28;20125;-72
2022/05/25 04:54:25;;;;;;;0.40;0.40;;;9.90;99.90;;;;;;5094054;28;20482;-75
2022/05/25 04:59:34;;;;;;;0.43;0.43;;;10.00;99.90;;;;;;5093929;28;20502;-73
2022/05/25 05:02:00;;;;;;;0.50;0.50;;;10.00;99.90;;;;;;5093369;28;20048;-74
2022/05/25 05:04:26;;;;;;;0.75;0.75;;;10.10;99.90;;;;;;5094264;28;20051;-72
2022/05/25 05:06:52;;;;;;;0.40;0.40;;;10.10;99.90;;;;;;5093899;28;20070;-73
2022/05/25 05:09:18;;;;;;;0.50;0.50;;;10.20;99.90;;;;;;5093693;28;20060;-75
2022/05/25 05:11:45;;;;;;;0.60;0.60;;;10.30;99.90;;;;;;5092960;28;20055;-74
2022/05/25 05:14:10;;;;;;;0.82;0.82;;;10.30;99.90;;;;;;5093798;28;20084;-73
2022/05/25 05:16:36;;;;;;;0.52;0.52;;;10.40;99.90;;;;;;5094081;28;20047;-72
2022/05/25 05:19:01;;;;;;;1.50;1.40;;;10.40;99.90;;;;;;5092662;28;20072;-72
2022/05/25 05:21:27;;;;;;;0.50;0.50;;;10.50;99.90;;;;;;5093810;28;20051;-74
2022/05/25 05:23:53;;;;;;;0.40;0.40;;;10.60;99.90;;;;;;5093604;28;20032;-75
2022/05/25 05:26:18;;;;;;;0.65;0.65;;;10.80;99.90;;;;;;5093601;28;20472;-73
2022/05/25 05:28:45;;;;;;;1.00;1.00;;;11.00;99.90;;;;;;5092666;28;20146;-76
2022/05/25 05:31:11;;;;;;;0.40;0.40;;;11.20;99.90;;;;;;5093612;28;20093;-73
2022/05/25 05:33:37;;;;;;;0.73;0.73;;;11.40;99.90;;;;;;5093543;28;20051;-77
2022/05/25 05:36:21;;;;;;;0.40;0.40;;;11.60;99.90;;;;;;5093599;28;20048;-72
2022/05/25 05:38:53;;;;;;;0.45;0.45;;;11.90;99.90;;;;;;5093478;28;20045;-71
2022/05/25 05:41:21;;;;;;;0.40;0.40;;;12.20;99.90;;;;;;5093535;28;20430;-74
2022/05/25 05:43:47;;;;;;;0.40;0.40;;;12.40;99.90;;;;;;5093765;28;20044;-75
2022/05/25 05:46:13;;;;;;;0.40;0.40;;;12.70;99.90;;;;;;5093444;28;20109;-73
2022/05/25 05:48:39;;;;;;;0.50;0.50;;;12.90;99.90;;;;;;5093519;28;20318;-75
2022/05/25 05:51:06;;;;;;;2.35;0.90;;;13.10;99.90;;;;;;5093437;28;20113;-72
2022/05/25 05:53:32;;;;;;;0.40;0.40;;;13.30;99.90;;;;;;5093413;28;20126;-72
2022/05/25 05:55:59;;;;;;;0.90;0.55;;;13.60;99.90;;;;;;5093811;28;20105;-73
2022/05/25 05:58:25;;;;;;;0.52;0.52;;;13.80;99.90;;;;;;5093373;28;20051;-75
2022/05/25 06:00:50;;;;;;;0.55;0.55;;;14.00;99.90;;;;;;5093361;28;20426;-74
2022/05/25 06:03:16;;;;;;;0.60;0.60;;;14.30;99.90;;;;;;5093266;28;20052;-75
2022/05/25 06:05:43;;;;;;;0.30;0.30;;;14.40;99.90;;;;;;5093295;28;20062;-75
2022/05/25 06:08:17;;;;;;;0.50;0.50;;;14.60;99.90;;;;;;5093248;28;20450;-73
2022/05/25 06:10:43;;;;;;;1.40;1.30;;;14.50;99.90;;;;;;5093292;28;20075;-73
2022/05/25 06:13:09;;;;;;;0.30;0.30;;;14.60;99.90;;;;;;5093245;28;20043;-72
2022/05/25 06:21:04;;;;;;;0.95;0.90;;;14.80;99.90;;;;;;5096841;28;20480;-77
2022/05/25 06:23:30;;;;;;;0.40;0.40;;;14.80;99.90;;;;;;5096704;28;20040;-77
2022/05/25 06:25:55;;;;;;;0.50;0.50;;;14.80;99.90;;;;;;5096956;28;20079;-72
2022/05/25 06:28:21;;;;;;;0.68;0.68;;;14.80;99.90;;;;;;5095385;28;20040;-73
2022/05/25 06:30:47;;;;;;;0.53;0.53;;;14.70;99.90;;;;;;5096430;28;20408;-74
2022/05/25 06:33:12;;;;;;;0.75;0.73;;;14.90;99.90;;;;;;5096472;28;20051;-72
2022/05/25 06:35:38;;;;;;;0.43;0.43;;;15.00;99.90;;;;;;5096454;28;20047;-77
2022/05/25 06:38:03;;;;;;;0.30;0.30;;;14.90;99.90;;;;;;5096453;28;20059;-76
2022/05/25 06:40:30;;;;;;;0.40;0.40;;;14.80;99.90;;;;;;5095236;28;20055;-75
2022/05/25 06:42:56;;;;;;;0.50;0.50;;;14.90;99.90;;;;;;5096695;28;20048;-73
2022/05/25 06:45:22;;;;;;;0.47;0.47;;;14.90;99.90;;;;;;5096263;28;20051;-70
2022/05/25 06:47:47;;;;;;;0.40;0.40;;;15.00;99.90;;;;;;5096203;28;20040;-73
2022/05/25 06:50:13;;;;;;;0.60;0.60;;;15.00;99.90;;;;;;5096910;28;20083;-74
2022/05/25 06:52:39;;;;;;;0.50;0.50;;;15.10;99.90;;;;;;5096527;28;20048;-73
2022/05/25 06:55:06;;;;;;;0.50;0.50;;;15.30;99.90;;;;;;5096117;28;20036;-73
2022/05/25 06:57:31;;;;;;;0.40;0.40;;;15.50;99.90;;;;;;5096035;28;20051;-73
2022/05/25 06:59:57;;;;;;;0.30;0.30;;;15.60;99.90;;;;;;5096147;28;20040;-74
2022/05/25 07:02:24;;;;;;;0.50;0.50;;;15.70;99.90;;;;;;5095936;28;20048;-70
2022/05/25 07:04:49;;;;;;;0.30;0.30;;;15.70;99.90;;;;;;5095894;28;20047;-74
2022/05/25 07:07:15;;;;;;;0.73;0.73;;;15.90;99.90;;;;;;5095920;28;20464;-73
2022/05/25 07:09:42;;;;;;;0.43;0.43;;;16.20;99.90;;;;;;5095499;28;20056;-73
2022/05/25 07:12:08;;;;;;;0.80;0.80;;;16.30;99.90;;;;;;5095848;28;20121;-73
2022/05/25 07:14:35;;;;;;;0.50;0.50;;;16.30;99.90;;;;;;5095827;28;20044;-70
2022/05/25 07:17:02;;;;;;;0.50;0.50;;;16.40;99.90;;;;;;5095619;28;20050;-73
2022/05/25 07:19:28;;;;;;;0.63;0.63;;;16.40;99.90;;;;;;5095618;28;20069;-74
2022/05/25 07:21:53;;;;;;;0.30;0.30;;;16.40;99.90;;;;;;5095561;28;20040;-76
2022/05/25 07:24:19;;;;;;;0.40;0.40;;;16.60;99.90;;;;;;5095384;28;20040;-74
2022/05/25 07:26:44;;;;;;;0.30;0.30;;;16.70;99.90;;;;;;5095467;28;20083;-74
2022/05/25 07:29:10;;;;;;;0.50;0.50;;;16.90;99.90;;;;;;5095411;28;20044;-74
2022/05/25 07:31:42;;;;;;;0.30;0.30;;;16.80;99.90;;;;;;5095342;28;20048;-74
2022/05/25 07:34:13;;;;;;;0.52;0.52;;;16.90;99.90;;;;;;5095356;28;20044;-73
2022/05/25 07:36:40;;;;;;;0.30;0.30;;;16.90;99.90;;;;;;5095422;28;20044;-73
2022/05/25 07:39:09;;;;;;;0.90;0.90;;;16.80;99.90;;;;;;5095259;28;20044;-75
2022/05/25 07:41:39;;;;;;;0.30;0.30;;;16.90;99.90;;;;;;5095421;28;20377;-75
2022/05/25 07:44:09;;;;;;;0.30;0.30;;;16.80;99.90;;;;;;5095174;28;20089;-76
2022/05/25 07:46:35;;;;;;;2.70;1.05;;;16.80;99.90;;;;;;5095043;28;20055;-76
2022/05/25 07:49:01;;;;;;;0.40;0.40;;;16.90;99.90;;;;;;5095568;28;20054;-73
2022/05/25 07:51:27;;;;;;;5.37;0.77;;;17.00;99.90;;;;;;5095181;28;20126;-74
2022/05/25 07:53:57;;;;;;;0.30;0.30;;;17.10;99.90;;;;;;5095013;28;20052;-75
2022/05/25 07:56:29;;;;;;;0.30;0.30;;;17.30;99.90;;;;;;5095128;28;20052;-74
2022/05/25 07:58:58;;;;;;;0.75;0.63;;;17.40;99.90;;;;;;5094858;28;20044;-73
2022/05/25 08:06:58;;;;;;;0.40;0.40;;;17.70;99.90;;;;;;5094672;28;20087;-73
2022/05/25 08:09:25;;;;;;;0.60;0.60;;;17.70;99.90;;;;;;5094400;28;20095;-72
2022/05/25 08:11:51;;;;;;;0.60;0.60;;;17.60;99.90;;;;;;5095191;28;20097;-75
2022/05/25 08:14:16;;;;;;;0.50;0.50;;;17.50;99.90;;;;;;5094950;28;20048;-73
2022/05/25 08:16:42;;;;;;;0.30;0.30;;;17.40;99.90;;;;;;5094503;28;20044;-76
2022/05/25 08:19:07;;;;;;;0.30;0.30;;;17.50;99.90;;;;;;5094930;28;20548;-73
2022/05/25 08:21:33;;;;;;;0.40;0.40;;;17.60;99.90;;;;;;5095519;28;20044;-75
2022/05/25 08:23:58;;;;;;;0.33;0.33;;;17.70;99.90;;;;;;5095184;28;20082;-73
2022/05/25 08:26:24;;;;;;;0.30;0.30;;;17.50;99.90;;;;;;5095636;28;20084;-74
2022/05/25 08:28:51;;;;;;;0.67;0.63;;;17.60;99.90;;;;;;5096426;28;20044;-72
2022/05/25 08:31:17;;;;;;;;;;;17.80;99.90;;;;;;5097350;28;20055;-76
2022/05/25 08:33:43;;;;;;;0.30;0.30;;;18.00;99.90;;;;;;5096205;28;19923;-74
2022/05/25 08:36:09;;;;;;;0.63;0.63;;;18.40;99.90;;;;;;5096414;28;20047;-72
2022/05/25 08:38:35;;;;;;;0.68;0.50;;;18.50;99.90;;;;;;5095489;28;20044;-74
2022/05/25 08:41:01;;;;;;;0.40;0.40;;;18.60;99.90;;;;;;5096138;28;20036;-73
2022/05/25 08:43:46;;;;;;;0.30;0.30;;;18.50;99.90;;;;;;5096859;28;20044;-75
2022/05/25 08:46:16;;;;;;;0.32;0.32;;;18.50;99.90;;;;;;5096048;28;20138;-74
2022/05/25 08:48:43;;;;;;;0.88;0.57;;;18.50;99.90;;;;;;5095781;28;20051;-72
2022/05/25 08:51:16;;;;;;;0.30;0.30;;;18.40;99.90;;;;;;5095828;28;20040;-72
2022/05/25 08:53:41;;;;;;;0.30;0.30;;;18.50;99.90;;;;;;5094925;28;20044;-74
2022/05/25 08:56:19;;;;;;;0.77;0.77;;;18.50;99.90;;;;;;5097450;28;20357;-71
2022/05/25 08:58:49;;;;;;;0.40;0.40;;;18.40;99.90;;;;;;5101640;28;20040;-74
2022/05/25 09:01:28;;;;;;;0.52;0.52;;;18.50;99.90;;;;;;5100906;28;20051;-75
2022/05/25 09:04:18;;;;;;;0.43;0.40;;;18.60;99.90;;;;;;5099354;28;20051;-72
2022/05/25 09:06:53;;;;;;;0.73;0.73;;;18.60;99.90;;;;;;5094791;28;20396;-74
2022/05/25 09:09:29;;;;;;;0.40;0.40;;;18.70;99.90;;;;;;5093700;28;20048;-71
2022/05/25 09:12:01;;;;;;;0.30;0.30;;;18.70;99.90;;;;;;5094270;28;20133;-73
2022/05/25 09:14:32;;;;;;;0.30;0.30;;;18.80;99.90;;;;;;5094211;28;20285;-72
2022/05/25 09:17:03;;;;;;;0.30;0.30;;;19.00;99.90;;;;;;5094325;28;20079;-70
2022/05/25 09:19:34;;;;;;;0.30;0.30;;;19.20;99.90;;;;;;5093998;28;20131;-73
2022/05/25 09:22:06;;;;;;;0.38;0.38;;;19.30;99.90;;;;;;5093866;28;20492;-73
2022/05/25 09:24:32;;;;;;;0.30;0.30;;;19.30;99.90;;;;;;5093814;28;20040;-73
2022/05/25 09:26:59;;;;;;;0.30;0.30;;;19.10;99.90;;;;;;5095139;28;20044;-76
2022/05/25 09:29:25;;;;;;;0.50;0.50;;;19.30;99.90;;;;;;5093732;28;20094;-76
2022/05/25 09:32:14;;;;;;;0.40;0.40;;;19.40;99.90;;;;;;5093642;28;20111;-73
2022/05/25 09:34:54;;;;;;;0.30;0.30;;;19.30;99.90;;;;;;5052005;28;20052;-74
2022/05/25 09:37:38;;;;;;;0.40;0.40;;;19.40;99.90;;;;;;5093415;28;20045;-75
2022/05/25 09:40:10;;;;;;;0.30;0.30;;;19.20;99.90;;;;;;5093560;28;20055;-75
2022/05/25 09:42:37;;;;;;;0.30;0.30;;;19.30;99.90;;;;;;5093583;28;20088;-71
2022/05/25 09:45:16;;;;;;;0.30;0.30;;;19.30;99.90;;;;;;5093579;28;20044;-71
2022/05/25 09:47:44;;;;;;;0.28;0.28;;;19.40;99.90;;;;;;5093614;28;20044;-72
2022/05/25 09:50:34;;;;;;;9.25;0.63;;;19.40;99.90;;;;;;5096365;28;20040;-74
2022/05/25 09:53:05;;;;;;;0.55;0.52;;;19.50;99.90;;;;;;5097417;28;20428;-75
2022/05/25 09:55:49;;;;;;;0.30;0.30;;;19.40;99.90;;;;;;5097456;28;20084;-74
2022/05/25 09:58:32;;;;;;;0.45;0.45;;;19.40;99.90;;;;;;5097231;28;20040;-75
2022/05/25 10:01:02;;;;;;;0.40;0.40;;;19.20;99.90;;;;;;5097351;28;20044;-75
2022/05/25 10:03:42;;;;;;;1.25;1.15;;;19.20;99.90;;;;;;5097443;28;20040;-73
2022/05/25 10:06:35;;;;;;;0.30;0.30;;;19.20;99.90;;;;;;5097160;28;20076;-74
2022/05/25 10:09:28;;;;;;;2.40;0.95;;;19.10;99.90;;;;;;5097375;28;20383;-74
2022/05/25 10:12:16;;;;;;;0.30;0.30;;;19.40;99.90;;;;;;5097789;28;20087;-75
2022/05/25 10:14:58;;;;;;;0.22;0.22;;;19.30;99.90;;;;;;5097317;28;20044;-74
2022/05/25 10:17:46;;;;;;;0.30;0.30;;;19.50;99.90;;;;;;5097440;28;20123;-74
2022/05/25 10:20:36;;;;;;;0.32;0.32;;;19.80;99.90;;;;;;5096992;28;20075;-75
2022/05/25 10:23:09;;;;;;;0.60;0.60;;;19.80;99.90;;;;;;5096607;28;20472;-74
2022/05/25 10:25:47;;;;;;;0.30;0.30;;;20.00;99.90;;;;;;5096676;28;20044;-76
2022/05/25 10:28:28;;;;;;;0.30;0.30;;;20.10;99.90;;;;;;5097092;28;20395;-72
2022/05/25 10:37:07;;;;;;;0.30;0.30;;;19.60;99.90;;;;;;5014335;28;20538;-73
2022/05/25 10:39:42;;;;;;;0.30;0.30;;;19.70;99.90;;;;;;5082121;28;20059;-74
2022/05/25 10:42:46;;;;;;;0.30;0.30;;;19.80;99.90;;;;;;5096450;28;20051;-76
2022/05/25 10:45:14;;;;;;;0.30;0.30;;;19.70;99.90;;;;;;5014145;28;20053;-72
2022/05/25 10:47:49;;;;;;;0.38;0.38;;;19.60;99.90;;;;;;5080890;28;20071;-73
2022/05/25 10:50:32;;;;;;;0.40;0.40;;;19.60;99.90;;;;;;5096166;28;20048;-73
2022/05/25 10:53:17;;;;;;;0.30;0.30;;;19.20;99.90;;;;;;5096422;28;20036;-74
2022/05/25 10:55:56;;;;;;;0.40;0.40;;;18.80;99.90;;;;;;5096253;28;20040;-76
2022/05/25 10:59:03;;;;;;;0.28;0.28;;;18.50;99.90;;;;;;5096196;28;20085;-73
2022/05/25 11:01:50;;;;;;;0.30;0.30;;;18.40;99.90;;;;;;5091465;28;20105;-73
2022/05/25 11:04:52;;;;;;;0.50;0.50;;;18.00;99.90;;;;;;5096355;28;20090;-76
2022/05/25 11:07:34;;;;;;;0.30;0.30;;;17.70;99.90;;;;;;5095951;28;20438;-71
2022/05/25 11:10:21;;;;;;;0.30;0.30;;;17.40;99.90;;;;;;5094626;28;20126;-76
2022/05/25 11:12:50;;;;;;;0.30;0.30;;;17.20;99.90;;;;;;5095721;28;20496;-73
2022/05/25 11:15:32;;;;;;;0.30;0.30;;;17.10;99.90;;;;;;5095673;28;20059;-74
2022/05/25 11:18:29;;;;;;;0.30;0.30;;;17.20;99.90;;;;;;5095506;28;20491;-74
2022/05/25 11:21:16;;;;;;;0.30;0.30;;;17.50;99.90;;;;;;5096047;28;20040;-75
2022/05/25 11:24:01;;;;;;;0.30;0.30;;;17.60;99.90;;;;;;5095604;28;20476;-73
2022/05/25 11:26:42;;;;;;;0.30;0.30;;;17.80;99.90;;;;;;5095668;28;20066;-74
2022/05/25 11:29:37;;;;;;;0.32;0.32;;;18.10;99.90;;;;;;5095395;28;20040;-72
2022/05/25 11:32:18;;;;;;;0.30;0.30;;;18.40;99.90;;;;;;5095479;28;20091;-74
2022/05/25 11:35:11;;;;;;;0.45;0.45;;;18.60;99.90;;;;;;5095886;28;20123;-72
2022/05/25 11:38:11;;;;;;;0.40;0.40;;;18.80;99.90;;;;;;5095382;28;20048;-75
2022/05/25 11:40:57;;;;;;;0.30;0.30;;;18.80;99.90;;;;;;5095338;28;20385;-73
2022/05/25 11:43:54;;;;;;;0.50;0.50;;;18.80;99.90;;;;;;5095714;28;20040;-74
2022/05/25 11:46:42;;;;;;;0.40;0.40;;;18.90;99.90;;;;;;5095458;28;20051;-72
2022/05/25 11:49:38;;;;;;;0.30;0.30;;;19.10;99.90;;;;;;5095790;28;20075;-74
2022/05/25 11:52:35;;;;;;;0.63;0.50;;;19.30;99.90;;;;;;5095716;28;20047;-72
2022/05/25 11:55:27;;;;;;;0.30;0.30;;;19.00;99.90;;;;;;5095136;28;20047;-73
2022/05/25 11:57:59;;;;;;;0.30;0.30;;;19.00;99.90;;;;;;5095139;28;20484;-75
2022/05/25 12:01:03;;;;;;;0.50;0.50;;;18.90;99.90;;;;;;5095085;28;20044;-74
2022/05/25 12:03:47;;;;;;;0.63;0.47;;;19.20;99.90;;;;;;5094884;28;20484;-75
2022/05/25 12:06:35;;;;;;;0.52;0.52;;;19.30;99.90;;;;;;5094848;28;20131;-76
2022/05/25 12:09:38;;;;;;;0.70;0.63;;;19.30;99.90;;;;;;5094962;28;20134;-71
2022/05/25 12:12:22;;;;;;;0.40;0.40;;;19.30;99.90;;;;;;5094007;28;20048;-74
2022/05/25 12:15:11;;;;;;;0.35;0.35;;;19.30;99.90;;;;;;5094724;28;20495;-74
2022/05/25 12:18:14;;;;;;;0.45;0.45;;;19.20;99.90;;;;;;5094724;28;20373;-73
2022/05/25 12:20:53;;;;;;;1.17;0.65;;;19.00;99.90;;;;;;5095082;28;20044;-72
2022/05/25 12:23:24;;;;;;;0.47;0.47;;;18.80;99.90;;;;;;5094855;28;20044;-74
2022/05/25 12:25:57;;;;;;;6.40;1.27;;;18.70;99.90;;;;;;5094317;28;20475;-75
2022/05/25 12:28:29;;;;;;;0.30;0.30;;;18.60;99.90;;;;;;5094409;28;20511;-75
2022/05/25 12:31:01;;;;;;;0.75;0.73;;;18.60;99.90;;;;;;5094831;28;20483;-74
2022/05/25 12:33:28;;;;;;;0.30;0.30;;;18.50;99.90;;;;;;5094242;28;20083;-74
2022/05/25 12:35:54;;;;;;;0.30;0.30;;;18.40;99.90;;;;;;5094486;28;20067;-73
2022/05/25 12:38:24;;;;;;;0.88;0.73;;;18.40;99.90;;;;;;5094515;28;20062;-73
2022/05/25 12:40:51;;;;;;;0.30;0.30;;;18.30;99.90;;;;;;5094230;28;20051;-75
2022/05/25 12:43:35;;;;;;;0.57;0.55;;;18.30;99.90;;;;;;5092952;28;20067;-75
2022/05/25 12:49:00;;;;;;;0.30;0.30;;;18.30;99.90;;;;;;5094301;28;20044;-76
2022/05/25 12:51:36;;;;;;;0.30;0.30;;;18.50;99.90;;;;;;5094051;28;20446;-76
2022/05/25 12:54:05;;;;;;;0.82;0.77;;;18.60;99.90;;;;;;5094190;28;20491;-73
2022/05/25 12:56:37;;;;;;;0.38;0.38;;;18.70;99.90;;;;;;5094532;28;20052;-76
2022/05/25 12:59:12;;;;;;;0.30;0.30;;;18.80;99.90;;;;;;5093623;28;20492;-73
2022/05/25 13:01:40;;;;;;;0.30;0.30;;;19.10;99.90;;;;;;5093894;28;20046;-72
2022/05/25 13:04:09;;;;;;;0.38;0.38;;;19.30;99.90;;;;;;5093488;28;20055;-75
2022/05/25 13:06:38;;;;;;;1.10;1.00;;;19.50;99.90;;;;;;5094379;28;20051;-74
2022/05/25 13:09:28;;;;;;;0.35;0.35;;;19.60;99.90;;;;;;5093763;28;20062;-73
2022/05/25 13:11:58;;;;;;;0.38;0.38;;;19.70;99.90;;;;;;5093820;28;20084;-75
2022/05/25 13:14:24;;;;;;;0.65;0.55;;;19.90;99.90;;;;;;5093760;28;20046;-76
2022/05/25 13:16:58;;;;;;;0.30;0.30;;;20.00;99.90;;;;;;5093685;28;20044;-76
2022/05/25 13:19:32;;;;;;;0.30;0.30;;;19.90;99.90;;;;;;5093477;28;20044;-73
2022/05/25 13:22:02;;;;;;;0.35;0.35;;;20.00;99.90;;;;;;5093999;28;20051;-73
2022/05/25 13:25:11;;;;;;;0.30;0.30;;;20.20;99.90;;;;;;5097412;28;20142;-74
2022/05/25 13:27:58;;;;;;;0.20;0.20;;;20.20;99.90;;;;;;5015127;28;20042;-73
2022/05/25 13:30:38;;;;;;;0.40;0.40;;;20.10;99.90;;;;;;5015628;28;20520;-73
2022/05/25 13:33:19;;;;;;;0.30;0.30;;;20.10;99.90;;;;;;5076649;28;20052;-74
2022/05/25 13:35:48;;;;;;;0.30;0.30;;;20.10;99.90;;;;;;5097718;28;20483;-71
2022/05/25 13:38:25;;;;;;;0.47;0.47;;;19.90;99.90;;;;;;5098076;28;20434;-73
2022/05/25 13:40:55;;;;;;;;;;;20.00;99.90;;;;;;5098015;28;20097;-74
2022/05/25 13:43:35;;;;;;;6.20;2.83;;;20.00;99.00;;;;;;5097584;28;19920;-76
2022/05/25 13:46:01;;;;;;;0.45;0.45;;;20.10;98.40;;;;;;5097449;28;20083;-75